Terminal Aerodrome Forecast
Issued by NWS

Home | Current Version | Previous Version | Text Only | Print | Product List | Glossary On
Versions: 1 2 3 4 5 6 7 8 9 10 11 12
000
FTUS43 KOAX 232320
TAFSNY
TAF
KSNY 232320Z 2400/2424 33028G42KT P6SM SCT090
     FM240100 32018G28KT P6SM SCT090
     FM241600 32024G38KT P6SM BKN090=

USA.gov is the U.S. government's official web portal to all federal, state and local government web resources and services.